Time;durP1;ratioP1;P1;durP2;ratioP2;P2;SDS_P1;SDS_P2;PMS_P1;PMS_P2;Temp;Humidity;BMP_temperature;BMP_pressure;BME280_temperature;BME280_humidity;BME280_pressure;Samples;Min_cycle;Max_cycle;Signal;HPM_P1;HPM_P2
2022/05/21 00:00:12;;;;;;;18.50;9.20;;;;;;;;;;2056525;28;20047;-65
2022/05/21 00:01:12;;;;;;;16.08;9.02;;;;;;;;;;2047756;28;20031;-64
2022/05/21 00:02:13;;;;;;;12.68;9.35;;;;;;;;;;2048580;28;20040;-64
2022/05/21 00:03:14;;;;;;;13.60;9.27;;;;;;;;;;2048228;28;20054;-63
2022/05/21 00:04:15;;;;;;;15.07;9.32;;;;;;;;;;2048163;29;20069;-63
2022/05/21 00:05:16;;;;;;;12.85;8.63;;;;;;;;;;2048225;28;20405;-63
2022/05/21 00:06:17;;;;;;;14.40;8.82;;;;;;;;;;2048319;28;20052;-64
2022/05/21 00:07:18;;;;;;;12.45;8.65;;;;;;;;;;2047577;28;20539;-63
2022/05/21 00:08:18;;;;;;;15.48;9.23;;;;;;;;;;2039784;29;20477;-63
2022/05/21 00:09:19;;;;;;;13.73;9.23;;;;;;;;;;2039976;29;20075;-63
2022/05/21 00:10:20;;;;;;;13.65;9.57;;;;;;;;;;2063833;28;20165;-64
2022/05/21 00:11:21;;;;;;;14.40;9.20;;;;;;;;;;2063922;28;20042;-64
2022/05/21 00:12:22;;;;;;;12.82;8.73;;;;;;;;;;2056051;28;20401;-63
2022/05/21 00:13:23;;;;;;;13.63;9.27;;;;;;;;;;2063393;28;20046;-64
2022/05/21 00:14:24;;;;;;;14.88;9.35;;;;;;;;;;2063998;28;20108;-64
2022/05/21 00:15:26;;;;;;;16.67;9.75;;;;;;;;;;2056182;28;20528;-65
2022/05/21 00:16:26;;;;;;;14.77;8.70;;;;;;;;;;2047673;28;20039;-63
2022/05/21 00:17:27;;;;;;;14.10;9.23;;;;;;;;;;2055606;28;20070;-64
2022/05/21 00:18:28;;;;;;;14.48;9.82;;;;;;;;;;2047982;28;20047;-63
2022/05/21 00:19:29;;;;;;;14.52;8.88;;;;;;;;;;2032151;29;20127;-64
2022/05/21 00:21:50;;;;;;;13.15;8.90;;;;;;;;;;2058296;28;20042;-64
2022/05/21 00:22:51;;;;;;;15.35;9.38;;;;;;;;;;2065075;28;20049;-64
2022/05/21 00:23:52;;;;;;;13.80;9.63;;;;;;;;;;2063518;28;20523;-65
2022/05/21 00:24:53;;;;;;;18.10;8.48;;;;;;;;;;2063919;28;20393;-63
2022/05/21 00:25:56;;;;;;;15.23;8.75;;;;;;;;;;2056313;28;20098;-64
2022/05/21 00:26:57;;;;;;;12.65;8.85;;;;;;;;;;2055884;28;20047;-65
2022/05/21 00:27:58;;;;;;;13.35;8.15;;;;;;;;;;2047406;29;20047;-63
2022/05/21 00:28:59;;;;;;;15.48;8.60;;;;;;;;;;2048140;29;20102;-63
2022/05/21 00:29:59;;;;;;;16.48;8.35;;;;;;;;;;2055752;28;20512;-66
2022/05/21 00:31:00;;;;;;;12.60;8.00;;;;;;;;;;2047906;29;20130;-63
2022/05/21 00:32:02;;;;;;;13.65;9.02;;;;;;;;;;2055816;28;20046;-63
2022/05/21 00:33:03;;;;;;;14.07;9.13;;;;;;;;;;2059620;28;20695;-64
2022/05/21 00:34:04;;;;;;;13.88;8.80;;;;;;;;;;2049862;28;20039;-63
2022/05/21 00:35:06;;;;;;;13.52;8.65;;;;;;;;;;2047677;28;20035;-63
2022/05/21 00:36:08;;;;;;;16.70;9.23;;;;;;;;;;2056240;28;20039;-63
2022/05/21 00:37:08;;;;;;;18.83;10.02;;;;;;;;;;2048093;28;20040;-63
2022/05/21 00:38:10;;;;;;;17.48;8.88;;;;;;;;;;2047022;28;20039;-63
2022/05/21 00:39:10;;;;;;;13.18;8.18;;;;;;;;;;2063911;28;20035;-63
2022/05/21 00:40:11;;;;;;;20.30;9.68;;;;;;;;;;2064799;28;20354;-63
2022/05/21 00:41:14;;;;;;;17.42;8.68;;;;;;;;;;2063517;28;20042;-63
2022/05/21 00:42:15;;;;;;;12.68;8.38;;;;;;;;;;2056485;28;20031;-63
2022/05/21 00:43:32;;;;;;;14.27;8.45;;;;;;;;;;2055785;28;20039;-63
2022/05/21 00:44:33;;;;;;;14.75;8.75;;;;;;;;;;2064005;28;20042;-64
2022/05/21 00:45:34;;;;;;;12.93;8.68;;;;;;;;;;2064158;28;20042;-63
2022/05/21 00:46:37;;;;;;;14.95;8.57;;;;;;;;;;2063509;28;20066;-64
2022/05/21 00:47:38;;;;;;;15.38;7.93;;;;;;;;;;2063618;28;20038;-63
2022/05/21 00:48:38;;;;;;;12.18;8.27;;;;;;;;;;2063276;28;20042;-65
2022/05/21 00:49:39;;;;;;;12.75;8.18;;;;;;;;;;2064228;28;20479;-63
2022/05/21 00:50:40;;;;;;;11.85;8.70;;;;;;;;;;2048082;28;20035;-63
2022/05/21 00:51:42;;;;;;;12.93;8.75;;;;;;;;;;2039785;29;20044;-64
2022/05/21 00:52:43;;;;;;;14.68;9.68;;;;;;;;;;2048103;28;20055;-63
2022/05/21 00:53:44;;;;;;;11.60;9.27;;;;;;;;;;2047424;29;20126;-63
2022/05/21 00:54:46;;;;;;;15.32;8.68;;;;;;;;;;2040135;29;20043;-65
2022/05/21 00:55:48;;;;;;;17.15;9.35;;;;;;;;;;2047479;28;20506;-64
2022/05/21 00:56:50;;;;;;;17.80;9.23;;;;;;;;;;2055511;28;20552;-64
2022/05/21 00:59:47;;;;;;;15.10;8.77;;;;;;;;;;2047413;28;20054;-65
2022/05/21 01:00:36;;;;;;;12.80;8.82;;;;;;;;;;2061310;28;20053;-64
2022/05/21 01:01:39;;;;;;;14.75;8.40;;;;;;;;;;2063815;28;20070;-65
2022/05/21 01:02:44;;;;;;;10.88;8.27;;;;;;;;;;2048493;28;20039;-64
2022/05/21 01:03:45;;;;;;;11.23;7.97;;;;;;;;;;2040628;28;20411;-66
2022/05/21 01:04:46;;;;;;;13.18;8.27;;;;;;;;;;2047839;29;20039;-64
2022/05/21 01:05:47;;;;;;;13.93;8.63;;;;;;;;;;2047528;29;20505;-63
2022/05/21 01:06:48;;;;;;;18.10;7.93;;;;;;;;;;2047216;28;20047;-64
2022/05/21 01:07:49;;;;;;;16.33;9.32;;;;;;;;;;2063944;28;20038;-63
2022/05/21 01:08:50;;;;;;;14.95;9.00;;;;;;;;;;2056163;28;20051;-64
2022/05/21 01:09:52;;;;;;;13.95;8.48;;;;;;;;;;2049404;28;20060;-63
2022/05/21 01:10:54;;;;;;;11.65;8.25;;;;;;;;;;2065487;28;20065;-65
2022/05/21 01:11:55;;;;;;;14.00;8.93;;;;;;;;;;2056909;28;20050;-63
2022/05/21 01:12:56;;;;;;;12.48;8.57;;;;;;;;;;2057304;28;20047;-63
2022/05/21 01:13:57;;;;;;;10.68;7.70;;;;;;;;;;2048974;28;20046;-64
2022/05/21 01:14:59;;;;;;;13.82;8.77;;;;;;;;;;2061859;28;20093;-64
2022/05/21 01:16:00;;;;;;;15.02;8.63;;;;;;;;;;2057115;28;20030;-64
2022/05/21 01:17:01;;;;;;;8.90;7.45;;;;;;;;;;2057476;28;20043;-64
2022/05/21 01:18:05;;;;;;;15.52;7.85;;;;;;;;;;2056909;28;20134;-64
2022/05/21 01:19:07;;;;;;;12.70;8.30;;;;;;;;;;2050068;28;20410;-65
2022/05/21 01:20:09;;;;;;;14.18;8.68;;;;;;;;;;2050176;28;20054;-65
2022/05/21 01:21:10;;;;;;;12.60;8.23;;;;;;;;;;2042071;29;20036;-65
2022/05/21 01:22:11;;;;;;;12.80;8.60;;;;;;;;;;2041189;29;20130;-64
2022/05/21 01:23:12;;;;;;;11.55;8.02;;;;;;;;;;2057158;28;20151;-63
2022/05/21 01:24:13;;;;;;;13.95;9.00;;;;;;;;;;2056472;28;20035;-64
2022/05/21 01:25:14;;;;;;;12.27;8.50;;;;;;;;;;2057307;28;20454;-64
2022/05/21 01:26:17;;;;;;;13.25;8.60;;;;;;;;;;2049219;28;20035;-63
2022/05/21 01:27:19;;;;;;;10.52;8.48;;;;;;;;;;2056121;28;20051;-64
2022/05/21 01:28:21;;;;;;;12.90;8.57;;;;;;;;;;2048840;28;20418;-63
2022/05/21 01:29:22;;;;;;;13.18;9.00;;;;;;;;;;2041681;28;20056;-64
2022/05/21 01:30:24;;;;;;;14.68;9.18;;;;;;;;;;2041238;29;20043;-64
2022/05/21 01:31:25;;;;;;;14.38;8.93;;;;;;;;;;2041181;29;20055;-64
2022/05/21 01:32:27;;;;;;;14.30;9.63;;;;;;;;;;2041211;29;20409;-64
2022/05/21 01:33:29;;;;;;;16.92;9.63;;;;;;;;;;2042123;28;20135;-64
2022/05/21 01:34:30;;;;;;;13.68;8.82;;;;;;;;;;2048282;28;20047;-63
2022/05/21 01:35:31;;;;;;;12.55;8.95;;;;;;;;;;2049007;29;20080;-65
2022/05/21 01:36:32;;;;;;;13.77;8.90;;;;;;;;;;2042776;29;20055;-65
2022/05/21 01:37:33;;;;;;;11.88;9.57;;;;;;;;;;2056800;28;20045;-65
2022/05/21 01:38:34;;;;;;;16.90;10.00;;;;;;;;;;2057108;28;20173;-64
2022/05/21 01:39:35;;;;;;;15.02;10.35;;;;;;;;;;2041227;28;20107;-66
2022/05/21 01:40:36;;;;;;;15.02;10.45;;;;;;;;;;2049090;29;20044;-64
2022/05/21 01:41:36;;;;;;;16.25;10.57;;;;;;;;;;2065076;28;20038;-64
2022/05/21 01:42:37;;;;;;;16.35;11.15;;;;;;;;;;2064916;28;20516;-63
2022/05/21 01:45:58;;;;;;;17.58;11.77;;;;;;;;;;2059178;28;20038;-63
2022/05/21 01:46:59;;;;;;;19.25;11.40;;;;;;;;;;2065330;28;20038;-64
2022/05/21 01:48:02;;;;;;;14.27;11.20;;;;;;;;;;2064686;28;20093;-63
2022/05/21 01:49:03;;;;;;;16.25;10.63;;;;;;;;;;2048932;28;20756;-66
2022/05/21 01:50:04;;;;;;;20.48;11.43;;;;;;;;;;2049061;28;20074;-65
2022/05/21 01:51:06;;;;;;;19.45;12.20;;;;;;;;;;2049071;29;20046;-64
2022/05/21 01:52:08;;;;;;;15.80;10.82;;;;;;;;;;2049124;28;20046;-65
2022/05/21 01:53:10;;;;;;;16.38;11.38;;;;;;;;;;2049658;28;20031;-63
2022/05/21 01:54:11;;;;;;;15.02;11.25;;;;;;;;;;2041634;28;20055;-64
2022/05/21 01:55:12;;;;;;;17.13;11.57;;;;;;;;;;2041056;29;20059;-64
2022/05/21 01:56:12;;;;;;;19.15;11.77;;;;;;;;;;2048538;29;20508;-63
2022/05/21 01:57:13;;;;;;;14.65;11.77;;;;;;;;;;2064712;28;20121;-66
2022/05/21 01:58:14;;;;;;;16.50;11.15;;;;;;;;;;2056862;28;20070;-64
2022/05/21 01:59:15;;;;;;;16.10;11.68;;;;;;;;;;2049053;28;20036;-64
2022/05/21 02:00:16;;;;;;;14.82;11.30;;;;;;;;;;2065008;28;20072;-65
2022/05/21 02:01:17;;;;;;;15.45;10.77;;;;;;;;;;2064933;28;20516;-64
2022/05/21 02:02:18;;;;;;;15.10;12.07;;;;;;;;;;2064795;28;20039;-67
2022/05/21 02:03:18;;;;;;;14.48;11.38;;;;;;;;;;2049511;28;20082;-64
2022/05/21 02:04:20;;;;;;;14.90;11.40;;;;;;;;;;2040662;29;20051;-64
2022/05/21 02:05:21;;;;;;;15.02;10.68;;;;;;;;;;2049475;28;20046;-63
2022/05/21 02:06:22;;;;;;;14.05;11.23;;;;;;;;;;2056238;28;20061;-65
2022/05/21 02:07:22;;;;;;;14.40;11.07;;;;;;;;;;2041445;28;20055;-64
2022/05/21 02:08:23;;;;;;;15.68;12.18;;;;;;;;;;2048223;28;20043;-64
2022/05/21 02:09:24;;;;;;;13.10;10.38;;;;;;;;;;2049082;28;20035;-65
2022/05/21 02:10:25;;;;;;;15.48;10.18;;;;;;;;;;2048315;29;20480;-64
2022/05/21 02:11:25;;;;;;;15.23;10.15;;;;;;;;;;2048885;29;20039;-63
2022/05/21 02:12:27;;;;;;;13.88;10.45;;;;;;;;;;2048370;29;20063;-64
2022/05/21 02:13:28;;;;;;;14.13;10.25;;;;;;;;;;2049418;28;20039;-64
2022/05/21 02:14:29;;;;;;;17.17;10.73;;;;;;;;;;2041304;28;20486;-64
2022/05/21 02:15:30;;;;;;;15.32;10.38;;;;;;;;;;2040864;29;20135;-63
2022/05/21 02:16:31;;;;;;;13.15;10.05;;;;;;;;;;2040410;29;20130;-64
2022/05/21 02:17:32;;;;;;;17.10;10.32;;;;;;;;;;2040545;29;20078;-66
2022/05/21 02:18:32;;;;;;;15.90;10.55;;;;;;;;;;2040798;29;20040;-64
2022/05/21 02:19:33;;;;;;;18.42;10.55;;;;;;;;;;2048923;29;20051;-64
2022/05/21 02:20:34;;;;;;;16.02;10.30;;;;;;;;;;2056385;28;20523;-64
2022/05/21 02:21:35;;;;;;;16.38;11.27;;;;;;;;;;2048945;29;20043;-64
2022/05/21 02:22:36;;;;;;;14.32;10.75;;;;;;;;;;2048650;28;20043;-64
2022/05/21 02:23:37;;;;;;;14.15;10.25;;;;;;;;;;2049180;28;20048;-64
2022/05/21 02:24:38;;;;;;;18.33;11.23;;;;;;;;;;2040803;29;20044;-64
2022/05/21 02:25:39;;;;;;;16.48;11.23;;;;;;;;;;2048638;29;20050;-64
2022/05/21 02:26:41;;;;;;;15.82;10.50;;;;;;;;;;2057343;28;20054;-64
2022/05/21 02:27:43;;;;;;;14.13;10.63;;;;;;;;;;2064286;28;20500;-64
2022/05/21 02:28:43;;;;;;;16.48;10.77;;;;;;;;;;2056307;28;20042;-65
2022/05/21 02:29:45;;;;;;;16.10;10.27;;;;;;;;;;2056548;28;20046;-64
2022/05/21 02:30:46;;;;;;;12.43;9.27;;;;;;;;;;2056337;28;20051;-63
2022/05/21 02:31:47;;;;;;;15.10;10.13;;;;;;;;;;2048567;29;20044;-65
2022/05/21 02:32:48;;;;;;;14.25;9.95;;;;;;;;;;2048692;28;20051;-64
2022/05/21 02:33:49;;;;;;;12.98;9.52;;;;;;;;;;2056667;28;20147;-64
2022/05/21 02:34:49;;;;;;;15.77;9.90;;;;;;;;;;2064319;28;20519;-65
2022/05/21 02:35:50;;;;;;;12.48;8.20;;;;;;;;;;2064457;28;20413;-64
2022/05/21 02:39:31;;;;;;;;;;;;;;;;;;2054171;28;20054;-63
2022/05/21 02:40:31;;;;;;;9.88;6.43;;;;;;;;;;2051008;28;19985;-65
2022/05/21 02:41:32;;;;;;;7.82;6.32;;;;;;;;;;2048822;28;20043;-64
2022/05/21 02:42:48;;;;;;;11.20;6.78;;;;;;;;;;2056936;28;20035;-64
2022/05/21 02:43:49;;;;;;;10.85;6.00;;;;;;;;;;2050526;28;20051;-64
2022/05/21 02:44:50;;;;;;;8.52;6.60;;;;;;;;;;2048664;29;20069;-64
2022/05/21 02:45:51;;;;;;;10.70;6.22;;;;;;;;;;2048532;29;20039;-64
2022/05/21 02:46:52;;;;;;;14.40;7.00;;;;;;;;;;2048706;28;20560;-65
2022/05/21 02:47:53;;;;;;;9.48;6.13;;;;;;;;;;2048717;28;20050;-64
2022/05/21 02:48:54;;;;;;;8.55;5.60;;;;;;;;;;2056766;28;20069;-65
2022/05/21 02:49:54;;;;;;;9.27;5.57;;;;;;;;;;2055762;28;20046;-64
2022/05/21 02:50:55;;;;;;;9.27;5.50;;;;;;;;;;2040736;29;20118;-64
2022/05/21 02:51:57;;;;;;;11.50;5.88;;;;;;;;;;2056432;28;20050;-64
2022/05/21 02:52:58;;;;;;;9.95;6.25;;;;;;;;;;2048600;28;20043;-65
2022/05/21 02:54:00;;;;;;;7.60;5.05;;;;;;;;;;2048874;28;20057;-65
2022/05/21 02:55:01;;;;;;;11.45;5.40;;;;;;;;;;2048513;28;20397;-64
2022/05/21 02:56:03;;;;;;;9.00;5.70;;;;;;;;;;2048032;29;20095;-64
2022/05/21 02:57:06;;;;;;;8.18;5.60;;;;;;;;;;2048589;28;20047;-64
2022/05/21 02:58:08;;;;;;;9.13;5.82;;;;;;;;;;2049109;28;20050;-64
2022/05/21 02:59:08;;;;;;;8.85;5.95;;;;;;;;;;2048655;29;20035;-64
2022/05/21 03:00:11;;;;;;;8.68;5.82;;;;;;;;;;2040058;29;20044;-63
2022/05/21 03:01:12;;;;;;;10.25;6.07;;;;;;;;;;2049296;28;20042;-64
2022/05/21 03:02:13;;;;;;;11.60;7.32;;;;;;;;;;2064122;28;20512;-65
2022/05/21 03:03:14;;;;;;;14.63;6.95;;;;;;;;;;2064534;28;20031;-63
2022/05/21 03:04:14;;;;;;;9.63;6.38;;;;;;;;;;2048516;28;20535;-65
2022/05/21 03:05:15;;;;;;;11.40;6.40;;;;;;;;;;2048458;29;20035;-63
2022/05/21 03:06:16;;;;;;;10.68;6.18;;;;;;;;;;2063948;28;20407;-63
2022/05/21 03:07:17;;;;;;;7.97;6.10;;;;;;;;;;2063777;28;20046;-64
2022/05/21 03:10:58;;;;;;;8.60;5.57;;;;;;;;;;2064750;28;20046;-64
2022/05/21 03:11:59;;;;;;;14.93;5.97;;;;;;;;;;2064376;28;20038;-64
2022/05/21 03:13:00;;;;;;;11.05;6.07;;;;;;;;;;2055905;28;20498;-64
2022/05/21 03:14:01;;;;;;;14.05;6.70;;;;;;;;;;2056355;28;20043;-64
2022/05/21 03:15:02;;;;;;;11.23;5.90;;;;;;;;;;2055945;28;20483;-64
2022/05/21 03:16:03;;;;;;;7.65;5.78;;;;;;;;;;2064384;28;20045;-64
2022/05/21 03:17:04;;;;;;;9.82;6.30;;;;;;;;;;2056032;28;20504;-64
2022/05/21 03:18:07;;;;;;;7.45;5.80;;;;;;;;;;2054222;28;20048;-65
2022/05/21 03:19:07;;;;;;;9.93;6.15;;;;;;;;;;2049044;28;20047;-65
2022/05/21 03:20:08;;;;;;;8.25;6.18;;;;;;;;;;2040477;29;20102;-65
2022/05/21 03:21:09;;;;;;;10.93;5.68;;;;;;;;;;2056118;28;20035;-64
2022/05/21 03:22:10;;;;;;;9.07;6.00;;;;;;;;;;2056183;28;20039;-64
2022/05/21 03:23:11;;;;;;;8.75;6.03;;;;;;;;;;2056819;28;20034;-64
2022/05/21 03:24:12;;;;;;;10.32;5.75;;;;;;;;;;2056353;28;20069;-64
2022/05/21 03:25:13;;;;;;;10.32;6.05;;;;;;;;;;2048386;29;20054;-63
2022/05/21 03:26:16;;;;;;;8.05;5.32;;;;;;;;;;2033271;29;20166;-65
2022/05/21 03:27:16;;;;;;;7.90;5.90;;;;;;;;;;2045004;28;20054;-64
2022/05/21 03:28:18;;;;;;;7.32;5.47;;;;;;;;;;2055763;28;20446;-64
2022/05/21 03:29:20;;;;;;;10.00;5.70;;;;;;;;;;2064504;28;20042;-65
2022/05/21 03:30:22;;;;;;;8.50;6.53;;;;;;;;;;2056179;28;20512;-63
2022/05/21 03:31:24;;;;;;;7.72;5.78;;;;;;;;;;2057083;28;20046;-66
2022/05/21 03:32:25;;;;;;;9.48;6.60;;;;;;;;;;2064564;28;20050;-64
2022/05/21 03:33:25;;;;;;;11.27;5.68;;;;;;;;;;2064061;28;20512;-65
2022/05/21 03:34:26;;;;;;;8.15;6.35;;;;;;;;;;2055922;28;20046;-65
2022/05/21 03:35:27;;;;;;;10.73;5.95;;;;;;;;;;2048719;28;20050;-64
2022/05/21 03:36:28;;;;;;;9.25;6.22;;;;;;;;;;2055974;28;20047;-65
2022/05/21 03:37:29;;;;;;;10.25;6.55;;;;;;;;;;2048710;28;20039;-64
2022/05/21 03:38:31;;;;;;;14.40;7.25;;;;;;;;;;2056089;28;20043;-65
2022/05/21 03:39:31;;;;;;;10.40;7.03;;;;;;;;;;2056567;28;20049;-64
2022/05/21 03:40:32;;;;;;;8.50;6.28;;;;;;;;;;2048040;29;20093;-64
2022/05/21 03:41:36;;;;;;;8.77;6.13;;;;;;;;;;2056350;28;20050;-64
2022/05/21 03:42:37;;;;;;;9.98;6.63;;;;;;;;;;2041120;28;20039;-65
2022/05/21 03:43:38;;;;;;;9.00;6.32;;;;;;;;;;2040446;29;20047;-65
2022/05/21 03:44:39;;;;;;;10.02;6.85;;;;;;;;;;2040583;29;20051;-65
2022/05/21 03:45:40;;;;;;;10.65;6.75;;;;;;;;;;2032828;29;20048;-64
2022/05/21 03:46:41;;;;;;;11.93;7.30;;;;;;;;;;2047869;29;20035;-65
2022/05/21 03:47:43;;;;;;;12.48;7.47;;;;;;;;;;2040193;29;20410;-65
2022/05/21 03:48:43;;;;;;;12.15;7.45;;;;;;;;;;2059362;28;20620;-63
2022/05/21 03:49:44;;;;;;;12.02;7.57;;;;;;;;;;2072002;28;20088;-65
2022/05/21 03:50:45;;;;;;;11.73;7.40;;;;;;;;;;2056210;28;20090;-64
2022/05/21 03:51:46;;;;;;;11.93;7.68;;;;;;;;;;2055878;28;20035;-64
2022/05/21 03:52:47;;;;;;;9.15;6.85;;;;;;;;;;2064049;28;20124;-65
2022/05/21 03:53:49;;;;;;;11.40;7.38;;;;;;;;;;2056266;28;20046;-64
2022/05/21 03:54:50;;;;;;;10.50;7.38;;;;;;;;;;2056068;28;20043;-64
2022/05/21 03:55:51;;;;;;;13.68;7.20;;;;;;;;;;2063798;28;20513;-63
2022/05/21 03:56:53;;;;;;;10.98;8.10;;;;;;;;;;2055473;28;20051;-63
2022/05/21 03:57:54;;;;;;;10.82;7.78;;;;;;;;;;2056974;28;20417;-64
2022/05/21 03:58:55;;;;;;;10.48;7.30;;;;;;;;;;2063725;28;20038;-65
2022/05/21 03:59:57;;;;;;;11.13;7.90;;;;;;;;;;2047815;29;20039;-64
2022/05/21 04:00:58;;;;;;;10.52;8.40;;;;;;;;;;2048766;28;20151;-64
2022/05/21 04:01:59;;;;;;;11.48;8.20;;;;;;;;;;2064190;28;20049;-64
2022/05/21 04:03:01;;;;;;;12.18;8.13;;;;;;;;;;2063669;28;20038;-63
2022/05/21 04:04:02;;;;;;;9.27;7.75;;;;;;;;;;2048317;28;20046;-63
2022/05/21 04:05:03;;;;;;;10.82;7.63;;;;;;;;;;2048302;28;20077;-64
2022/05/21 04:06:04;;;;;;;10.55;7.75;;;;;;;;;;2063887;28;20132;-63
2022/05/21 04:07:05;;;;;;;12.27;8.05;;;;;;;;;;2055952;28;20054;-64
2022/05/21 04:08:06;;;;;;;10.07;8.13;;;;;;;;;;2047667;29;20039;-65
2022/05/21 04:09:07;;;;;;;10.32;7.18;;;;;;;;;;2048246;28;20040;-64
2022/05/21 04:10:08;;;;;;;10.35;7.00;;;;;;;;;;2055635;28;20035;-64
2022/05/21 04:11:09;;;;;;;10.43;7.78;;;;;;;;;;2047635;29;20046;-65
2022/05/21 04:12:10;;;;;;;9.73;6.80;;;;;;;;;;2056459;28;20039;-63
2022/05/21 04:13:11;;;;;;;10.35;7.75;;;;;;;;;;2072304;28;20496;-64
2022/05/21 04:14:14;;;;;;;12.40;8.32;;;;;;;;;;2063869;28;20118;-65
2022/05/21 04:15:15;;;;;;;11.18;8.20;;;;;;;;;;2064120;28;20045;-64
2022/05/21 04:16:15;;;;;;;12.00;6.93;;;;;;;;;;2055643;28;20054;-64
2022/05/21 04:17:16;;;;;;;11.25;7.07;;;;;;;;;;2055846;28;20093;-64
2022/05/21 04:18:17;;;;;;;10.80;7.65;;;;;;;;;;2055656;28;20132;-63
2022/05/21 04:19:18;;;;;;;10.98;7.07;;;;;;;;;;2056440;28;20437;-64
2022/05/21 04:20:21;;;;;;;10.05;7.35;;;;;;;;;;2056019;28;20035;-64
2022/05/21 04:21:23;;;;;;;10.95;6.38;;;;;;;;;;2056022;28;20039;-65
2022/05/21 04:22:24;;;;;;;9.18;6.80;;;;;;;;;;2063806;28;20053;-64
2022/05/21 04:23:25;;;;;;;8.20;5.97;;;;;;;;;;2064288;28;20112;-64
2022/05/21 04:24:25;;;;;;;9.43;6.88;;;;;;;;;;2056161;28;20141;-64
2022/05/21 04:25:26;;;;;;;9.73;6.30;;;;;;;;;;2040958;28;20131;-64
2022/05/21 04:26:27;;;;;;;9.43;5.97;;;;;;;;;;2055105;28;20046;-65
2022/05/21 04:27:28;;;;;;;9.73;6.68;;;;;;;;;;2044208;29;20046;-65
2022/05/21 04:28:29;;;;;;;8.25;5.72;;;;;;;;;;2047418;28;20470;-65
2022/05/21 04:29:30;;;;;;;11.70;5.65;;;;;;;;;;2064007;28;20051;-64
2022/05/21 04:30:31;;;;;;;6.95;5.43;;;;;;;;;;2063492;28;20043;-63
2022/05/21 04:31:32;;;;;;;8.77;5.13;;;;;;;;;;2055590;28;20054;-65
2022/05/21 04:32:33;;;;;;;8.80;5.10;;;;;;;;;;2055749;28;20065;-64
2022/05/21 04:33:34;;;;;;;7.90;4.60;;;;;;;;;;2055947;28;20074;-66
2022/05/21 04:34:35;;;;;;;8.25;4.63;;;;;;;;;;2064130;28;20100;-64
2022/05/21 04:37:57;;;;;;;6.90;4.32;;;;;;;;;;2064670;28;20043;-64
2022/05/21 04:38:58;;;;;;;7.57;4.55;;;;;;;;;;2063601;28;20064;-64
2022/05/21 04:39:59;;;;;;;5.13;4.13;;;;;;;;;;2048197;29;20043;-64
2022/05/21 04:41:00;;;;;;;7.85;4.53;;;;;;;;;;2055732;28;20039;-63
2022/05/21 04:42:03;;;;;;;6.40;3.58;;;;;;;;;;2064187;28;20050;-63
2022/05/21 04:43:04;;;;;;;6.60;4.43;;;;;;;;;;2063896;28;20669;-65
2022/05/21 04:44:07;;;;;;;6.95;3.88;;;;;;;;;;2056370;28;20046;-64
2022/05/21 04:45:08;;;;;;;5.47;4.15;;;;;;;;;;2065669;28;20038;-64
2022/05/21 04:46:11;;;;;;;7.80;3.92;;;;;;;;;;2049634;28;20038;-64
2022/05/21 04:47:12;;;;;;;8.63;4.18;;;;;;;;;;2049521;28;20044;-65
2022/05/21 04:48:12;;;;;;;5.50;3.83;;;;;;;;;;2056866;28;20239;-63
2022/05/21 04:49:13;;;;;;;7.00;3.65;;;;;;;;;;2057539;28;20078;-64
2022/05/21 04:50:14;;;;;;;6.57;3.47;;;;;;;;;;2066770;28;20034;-64
2022/05/21 04:51:15;;;;;;;7.03;3.35;;;;;;;;;;2049628;28;20546;-63
2022/05/21 04:52:16;;;;;;;5.15;3.20;;;;;;;;;;2049507;28;20162;-65
2022/05/21 04:53:16;;;;;;;7.60;3.60;;;;;;;;;;2057168;28;20039;-64
2022/05/21 04:54:17;;;;;;;4.63;3.50;;;;;;;;;;2057500;28;20035;-63
2022/05/21 04:55:18;;;;;;;5.18;3.60;;;;;;;;;;2065526;28;20149;-64
2022/05/21 04:56:19;;;;;;;5.18;3.90;;;;;;;;;;2049460;28;20051;-64
2022/05/21 04:57:20;;;;;;;6.65;3.58;;;;;;;;;;2057098;28;20596;-64
2022/05/21 04:58:20;;;;;;;6.00;3.75;;;;;;;;;;2065275;28;20527;-63
2022/05/21 04:59:21;;;;;;;8.88;4.32;;;;;;;;;;2049237;29;20047;-64
2022/05/21 05:00:22;;;;;;;6.78;3.67;;;;;;;;;;2042003;29;20074;-64
2022/05/21 05:01:23;;;;;;;7.78;4.10;;;;;;;;;;2057505;28;20439;-64
2022/05/21 05:02:24;;;;;;;5.82;3.80;;;;;;;;;;2065167;28;20050;-64
2022/05/21 05:03:25;;;;;;;7.55;4.13;;;;;;;;;;2065102;28;20408;-64
2022/05/21 05:04:26;;;;;;;5.32;3.90;;;;;;;;;;2065048;28;20042;-64
2022/05/21 05:05:26;;;;;;;7.43;3.53;;;;;;;;;;2057071;28;20039;-64
2022/05/21 05:06:27;;;;;;;5.40;3.80;;;;;;;;;;2049031;29;20075;-64
2022/05/21 05:07:28;;;;;;;8.30;3.97;;;;;;;;;;2039481;29;20075;-64
2022/05/21 05:08:29;;;;;;;5.97;3.45;;;;;;;;;;2047987;28;20115;-62
2022/05/21 05:09:30;;;;;;;9.52;4.07;;;;;;;;;;2057433;28;20037;-65
2022/05/21 05:10:30;;;;;;;5.85;3.67;;;;;;;;;;2057050;28;20460;-64
2022/05/21 05:11:32;;;;;;;11.68;4.25;;;;;;;;;;2049514;28;20075;-64
2022/05/21 05:12:33;;;;;;;5.85;3.28;;;;;;;;;;2049355;29;20561;-64
2022/05/21 05:13:33;;;;;;;6.18;3.30;;;;;;;;;;2056877;28;20047;-64
2022/05/21 05:14:35;;;;;;;5.43;3.70;;;;;;;;;;2049045;29;20472;-64
2022/05/21 05:15:36;;;;;;;5.50;3.33;;;;;;;;;;2057515;28;20051;-64
2022/05/21 05:16:36;;;;;;;5.95;3.80;;;;;;;;;;2064653;28;20045;-65
2022/05/21 05:17:37;;;;;;;7.20;3.47;;;;;;;;;;2064719;28;20115;-64
2022/05/21 05:18:38;;;;;;;5.47;3.28;;;;;;;;;;2064848;28;20066;-65
2022/05/21 05:19:39;;;;;;;4.85;3.20;;;;;;;;;;2057413;28;20124;-64
2022/05/21 05:20:41;;;;;;;5.75;3.60;;;;;;;;;;2065252;28;20038;-64
2022/05/21 05:21:42;;;;;;;5.32;3.50;;;;;;;;;;2064895;28;20046;-65
2022/05/21 05:22:43;;;;;;;4.50;3.05;;;;;;;;;;2064822;28;20043;-64
2022/05/21 05:23:44;;;;;;;6.53;3.45;;;;;;;;;;2057449;28;20676;-64
2022/05/21 05:24:45;;;;;;;6.07;3.30;;;;;;;;;;2057104;28;20035;-63
2022/05/21 05:25:45;;;;;;;5.63;3.03;;;;;;;;;;2065316;28;20206;-63
2022/05/21 05:26:46;;;;;;;6.32;3.33;;;;;;;;;;2056755;28;20042;-64
2022/05/21 05:27:47;;;;;;;6.68;3.45;;;;;;;;;;2048638;29;20050;-65
2022/05/21 05:28:49;;;;;;;8.88;3.17;;;;;;;;;;2048499;28;20043;-65
2022/05/21 05:29:50;;;;;;;4.65;3.33;;;;;;;;;;2057211;28;20442;-64
2022/05/21 05:30:52;;;;;;;8.30;3.15;;;;;;;;;;2056788;28;20109;-63
2022/05/21 05:31:53;;;;;;;6.45;3.83;;;;;;;;;;2056859;28;20065;-66
2022/05/21 05:32:54;;;;;;;6.18;3.33;;;;;;;;;;2054603;28;20039;-64
2022/05/21 05:33:56;;;;;;;5.55;3.45;;;;;;;;;;2049404;28;20065;-65
2022/05/21 05:34:57;;;;;;;7.95;3.70;;;;;;;;;;2064931;28;20038;-64
2022/05/21 05:35:58;;;;;;;4.45;2.88;;;;;;;;;;2065015;28;20043;-63
2022/05/21 05:36:58;;;;;;;5.82;3.40;;;;;;;;;;2064484;28;20184;-64
2022/05/21 05:38:03;;;;;;;5.50;3.40;;;;;;;;;;2065289;28;20047;-64
2022/05/21 05:39:04;;;;;;;5.93;3.40;;;;;;;;;;2064646;28;20041;-64
2022/05/21 05:40:06;;;;;;;5.68;3.25;;;;;;;;;;2056924;28;20046;-65
2022/05/21 05:41:07;;;;;;;5.93;3.60;;;;;;;;;;2064766;28;20049;-63
2022/05/21 05:42:08;;;;;;;5.85;3.33;;;;;;;;;;2064960;28;20412;-64
2022/05/21 05:43:09;;;;;;;5.70;3.67;;;;;;;;;;2064935;28;20038;-64
2022/05/21 05:44:10;;;;;;;4.72;3.40;;;;;;;;;;2056988;28;20425;-64
2022/05/21 05:45:11;;;;;;;10.70;3.58;;;;;;;;;;2065103;28;20043;-63
2022/05/21 05:46:12;;;;;;;7.72;4.15;;;;;;;;;;2064766;28;20026;-64
2022/05/21 05:47:13;;;;;;;5.18;3.30;;;;;;;;;;2065618;28;20467;-65
2022/05/21 05:48:14;;;;;;;8.25;3.67;;;;;;;;;;2065781;28;20042;-64
2022/05/21 05:49:14;;;;;;;5.70;3.58;;;;;;;;;;2064608;28;20042;-65
2022/05/21 05:50:15;;;;;;;4.95;2.75;;;;;;;;;;2065193;28;20141;-64
2022/05/21 05:51:17;;;;;;;5.75;3.05;;;;;;;;;;2057412;28;20093;-65
2022/05/21 05:52:19;;;;;;;5.22;3.20;;;;;;;;;;2057135;28;20516;-64
2022/05/21 05:53:20;;;;;;;5.63;3.30;;;;;;;;;;2049205;29;20055;-64
2022/05/21 05:54:21;;;;;;;6.93;3.97;;;;;;;;;;2049165;28;20434;-64
2022/05/21 05:55:22;;;;;;;6.38;3.75;;;;;;;;;;2053345;28;20051;-64
2022/05/21 05:56:23;;;;;;;4.65;3.53;;;;;;;;;;2049137;28;20402;-64
2022/05/21 05:57:24;;;;;;;8.63;3.60;;;;;;;;;;2048583;28;20050;-64
2022/05/21 06:00:49;;;;;;;4.47;3.30;;;;;;;;;;2057063;28;20046;-63
2022/05/21 06:02:57;;;;;;;4.68;2.90;;;;;;;;;;2057438;28;20114;-64
2022/05/21 06:04:11;;;;;;;5.47;3.53;;;;;;;;;;2065253;28;20027;-64
2022/05/21 06:05:13;;;;;;;4.90;3.20;;;;;;;;;;2066193;28;20104;-63
2022/05/21 06:06:14;;;;;;;5.13;3.38;;;;;;;;;;2064951;28;20472;-63
2022/05/21 06:07:14;;;;;;;6.72;3.85;;;;;;;;;;2056518;28;20042;-65
2022/05/21 06:08:15;;;;;;;6.53;3.15;;;;;;;;;;2056502;28;20088;-64
2022/05/21 06:09:17;;;;;;;3.78;3.10;;;;;;;;;;2057149;28;20521;-65
2022/05/21 06:10:20;;;;;;;5.30;3.28;;;;;;;;;;2056829;28;20051;-65
2022/05/21 06:11:21;;;;;;;5.57;3.20;;;;;;;;;;2057395;28;20039;-64
2022/05/21 06:12:22;;;;;;;6.60;3.45;;;;;;;;;;2057142;28;20050;-64
2022/05/21 06:13:22;;;;;;;6.00;3.13;;;;;;;;;;2065022;28;20394;-64
2022/05/21 06:14:23;;;;;;;4.55;3.30;;;;;;;;;;2057025;28;20043;-64
2022/05/21 06:15:24;;;;;;;5.38;3.00;;;;;;;;;;2048807;29;20062;-62
2022/05/21 06:16:26;;;;;;;5.82;3.60;;;;;;;;;;2048680;29;20047;-64
2022/05/21 06:17:26;;;;;;;7.13;3.38;;;;;;;;;;2056639;28;20046;-64
2022/05/21 06:18:27;;;;;;;4.43;3.25;;;;;;;;;;2055870;28;20043;-63
2022/05/21 06:19:29;;;;;;;5.65;3.28;;;;;;;;;;2056928;28;20047;-64